createdAt,value
2023-06-09T00:02:25.923Z,100339.44
2023-06-09T00:04:53.396Z,100345.63
2023-06-09T00:07:21.360Z,100343.28
2023-06-09T00:09:48.930Z,100338.03
2023-06-09T00:12:16.522Z,100351.81
2023-06-09T00:14:44.132Z,100343.38
2023-06-09T00:17:12.237Z,100353.78
2023-06-09T00:19:43.295Z,100354.09
2023-06-09T00:22:14.900Z,100347.66
2023-06-09T00:24:42.885Z,100352.59
2023-06-09T00:27:10.332Z,100341.16
2023-06-09T00:29:37.865Z,100342.97
2023-06-09T00:32:06.906Z,100339.19
2023-06-09T00:34:34.451Z,100333.22
2023-06-09T00:37:01.914Z,100331.25
2023-06-09T00:39:29.878Z,100321.78
2023-06-09T00:41:57.316Z,100317.31
2023-06-09T00:44:24.842Z,100312.84
2023-06-09T00:46:52.819Z,100308.53
2023-06-09T00:49:21.134Z,100306.81
2023-06-09T00:51:48.782Z,100299.41
2023-06-09T00:54:19.289Z,100292.63
2023-06-09T00:56:47.198Z,100287.47
2023-06-09T00:59:15.996Z,100292.13
2023-06-09T01:01:45.765Z,100289.53
2023-06-09T01:04:16.438Z,100279.28
2023-06-09T01:06:57.618Z,100275.69
2023-06-09T01:09:36.674Z,100278.75
2023-06-09T01:12:35.088Z,100279.94
2023-06-09T01:15:18.746Z,100284.53
2023-06-09T01:17:51.985Z,100273.34
2023-06-09T01:20:33.261Z,100280.41
2023-06-09T01:23:08.163Z,100277.72
2023-06-09T01:25:41.077Z,100276.63
2023-06-09T01:28:12.916Z,100281.00
2023-06-09T01:30:42.764Z,100272.00
2023-06-09T01:33:19.063Z,100275.59
2023-06-09T01:35:47.513Z,100265.50
2023-06-09T01:38:18.065Z,100266.63
2023-06-09T01:40:46.006Z,100267.72
2023-06-09T01:43:14.066Z,100262.94
2023-06-09T01:45:41.789Z,100260.66
2023-06-09T01:48:21.373Z,100253.81
2023-06-09T01:51:07.736Z,100257.50
2023-06-09T01:53:42.034Z,100245.22
2023-06-09T01:56:21.696Z,100251.88
2023-06-09T01:58:54.901Z,100248.63
2023-06-09T02:01:23.923Z,100242.50
2023-06-09T02:03:54.348Z,100240.94
2023-06-09T02:06:22.213Z,100242.81
2023-06-09T02:08:49.902Z,100247.50
2023-06-09T02:11:17.871Z,100234.28
2023-06-09T02:13:54.675Z,100235.16
2023-06-09T02:16:23.544Z,100232.75
2023-06-09T02:18:53.485Z,100229.47
2023-06-09T02:21:21.020Z,100218.13
2023-06-09T02:23:48.675Z,100226.81
2023-06-09T02:26:16.485Z,100227.81
2023-06-09T02:28:44.030Z,100229.63
2023-06-09T02:31:11.682Z,100233.94
2023-06-09T02:33:39.594Z,100234.72
2023-06-09T02:36:07.231Z,100228.38
2023-06-09T02:38:34.800Z,100227.75
2023-06-09T02:41:02.467Z,100218.81
2023-06-09T02:43:30.057Z,100221.63
2023-06-09T02:45:57.537Z,100220.69
2023-06-09T02:48:25.206Z,100208.88
2023-06-09T02:50:52.768Z,100223.22
2023-06-09T02:53:22.394Z,100224.06
2023-06-09T02:55:50.416Z,100210.69
2023-06-09T02:58:25.952Z,100209.03
2023-06-09T03:00:56.369Z,100212.03
2023-06-09T03:03:24.582Z,100205.38
2023-06-09T03:05:53.576Z,100203.81
2023-06-09T03:08:21.316Z,100201.28
2023-06-09T03:10:50.211Z,100202.44
2023-06-09T03:13:19.513Z,100200.56
2023-06-09T03:15:51.502Z,100206.97
2023-06-09T03:18:22.049Z,100191.09
2023-06-09T03:20:51.964Z,100196.34
2023-06-09T03:23:22.718Z,100189.53
2023-06-09T03:25:53.255Z,100190.31
2023-06-09T03:28:24.281Z,100196.56
2023-06-09T03:30:51.984Z,100189.63
2023-06-09T03:33:20.684Z,100188.00
2023-06-09T03:35:50.915Z,100187.75
2023-06-09T03:38:20.031Z,100178.94
2023-06-09T03:40:47.690Z,100178.81
2023-06-09T03:43:15.479Z,100182.53
2023-06-09T03:45:43.162Z,100178.59
2023-06-09T03:48:11.816Z,100183.91
2023-06-09T03:50:41.644Z,100178.28
2023-06-09T03:53:11.227Z,100177.66
2023-06-09T03:55:39.609Z,100175.13
2023-06-09T03:58:10.068Z,100176.72
2023-06-09T04:00:38.195Z,100185.13
2023-06-09T04:03:05.849Z,100179.13
2023-06-09T04:05:33.450Z,100176.13
2023-06-09T04:08:01.613Z,100177.34
2023-06-09T04:10:29.815Z,100171.97
2023-06-09T04:12:57.245Z,100175.91
2023-06-09T04:15:25.119Z,100171.59
2023-06-09T04:17:54.132Z,100176.22
2023-06-09T04:20:28.066Z,100171.81
2023-06-09T04:22:56.082Z,100180.00
2023-06-09T04:25:29.082Z,100171.81
2023-06-09T04:28:04.859Z,100170.09
2023-06-09T04:30:35.799Z,100175.34
2023-06-09T04:33:08.732Z,100172.19
2023-06-09T04:35:37.202Z,100180.38
2023-06-09T04:38:06.026Z,100179.44
2023-06-09T04:40:34.637Z,100181.00
2023-06-09T04:43:04.568Z,100174.41
2023-06-09T04:45:36.916Z,100178.78
2023-06-09T04:48:23.605Z,100186.25
2023-06-09T04:50:51.281Z,100186.47
2023-06-09T04:53:21.131Z,100186.78
2023-06-09T04:55:56.947Z,100190.88
2023-06-09T04:58:29.973Z,100191.56
2023-06-09T05:00:58.479Z,100183.16
2023-06-09T05:03:26.366Z,100186.84
2023-06-09T05:05:54.152Z,100189.97
2023-06-09T05:08:23.753Z,100188.19
2023-06-09T05:10:53.895Z,100199.91
2023-06-09T05:13:22.199Z,100194.03
2023-06-09T05:15:50.169Z,100198.91
2023-06-09T05:18:19.125Z,100202.44
2023-06-09T05:20:48.075Z,100201.06
2023-06-09T05:23:18.937Z,100205.66
2023-06-09T05:25:51.199Z,100210.28
2023-06-09T05:28:18.739Z,100224.03
2023-06-09T05:30:46.580Z,100221.81
2023-06-09T05:33:14.663Z,100226.34
2023-06-09T05:35:42.221Z,100230.50
2023-06-09T05:38:11.128Z,100241.63
2023-06-09T05:40:38.583Z,100240.59
2023-06-09T05:43:06.232Z,100229.66
2023-06-09T05:45:33.713Z,100235.56
2023-06-09T05:48:01.386Z,100239.13
2023-06-09T05:50:28.813Z,100240.97
2023-06-09T05:52:56.633Z,100233.25
2023-06-09T05:55:24.492Z,100233.94
2023-06-09T05:57:52.026Z,100232.75
2023-06-09T06:00:20.895Z,100240.38
2023-06-09T06:02:48.520Z,100235.00
2023-06-09T06:05:15.963Z,100237.25
2023-06-09T06:07:43.644Z,100229.94
2023-06-09T06:10:11.507Z,100234.38
2023-06-09T06:12:39.439Z,100232.59
2023-06-09T06:15:07.411Z,100227.19
2023-06-09T06:17:34.958Z,100233.66
2023-06-09T06:20:02.453Z,100237.03
2023-06-09T06:22:29.976Z,100249.13
2023-06-09T06:24:57.590Z,100231.41
2023-06-09T06:27:25.095Z,100238.44
2023-06-09T06:29:52.572Z,100232.22
2023-06-09T06:32:20.039Z,100234.22
2023-06-09T06:34:47.804Z,100237.53
2023-06-09T06:37:15.529Z,100227.56
2023-06-09T06:39:43.007Z,100226.97
2023-06-09T06:42:11.722Z,100229.91
2023-06-09T06:44:56.372Z,100227.50
2023-06-09T06:47:25.622Z,100226.38
2023-06-09T06:49:53.177Z,100220.56
2023-06-09T06:52:20.779Z,100222.25
2023-06-09T06:54:48.262Z,100231.50
2023-06-09T06:57:24.324Z,100224.81
2023-06-09T06:59:54.067Z,100227.81
2023-06-09T07:02:21.613Z,100228.91
2023-06-09T07:04:49.359Z,100226.91
2023-06-09T07:07:16.997Z,100225.09
2023-06-09T07:09:44.811Z,100219.22
2023-06-09T07:12:12.345Z,100215.53
2023-06-09T07:14:39.931Z,100220.50
2023-06-09T07:17:07.624Z,100214.50
2023-06-09T07:19:36.464Z,100201.97
2023-06-09T07:22:04.390Z,100215.47
2023-06-09T07:24:31.886Z,100218.50
2023-06-09T07:26:59.284Z,100222.00
2023-06-09T07:29:27.160Z,100225.34
2023-06-09T07:31:54.673Z,100229.22
2023-06-09T07:34:22.305Z,100226.84
2023-06-09T07:36:51.953Z,100231.09
2023-06-09T07:39:20.426Z,100237.19
2023-06-09T07:41:47.982Z,100247.50
2023-06-09T07:44:17.229Z,100238.28
2023-06-09T07:46:44.877Z,100228.81
2023-06-09T07:49:12.636Z,100238.78
2023-06-09T07:51:42.770Z,100239.91
2023-06-09T07:54:10.660Z,100252.53
2023-06-09T07:56:38.179Z,100252.06
2023-06-09T07:59:07.194Z,100249.88
2023-06-09T08:01:34.822Z,100254.28
2023-06-09T08:04:05.315Z,100236.47
2023-06-09T08:06:35.001Z,100232.78
2023-06-09T08:09:02.656Z,100227.91
2023-06-09T08:11:30.238Z,100228.66
2023-06-09T08:13:57.759Z,100237.41
2023-06-09T08:16:25.790Z,100233.94
2023-06-09T08:18:53.285Z,100230.81
2023-06-09T08:21:20.925Z,100239.84
2023-06-09T08:23:48.504Z,100233.16
2023-06-09T08:26:16.436Z,100236.53
2023-06-09T08:28:44.073Z,100228.22
2023-06-09T08:31:11.823Z,100236.00
2023-06-09T08:33:40.985Z,100244.59
2023-06-09T08:36:08.668Z,100242.31
2023-06-09T08:38:36.730Z,100243.03
2023-06-09T08:41:11.780Z,100238.81
2023-06-09T08:43:39.572Z,100227.41
2023-06-09T08:46:11.007Z,100240.91
2023-06-09T08:48:51.556Z,100234.94
2023-06-09T08:51:22.638Z,100235.38
2023-06-09T08:53:53.141Z,100234.38
2023-06-09T08:56:24.598Z,100226.75
2023-06-09T08:58:53.292Z,100221.59
2023-06-09T09:01:21.026Z,100217.25
2023-06-09T09:03:49.028Z,100229.78
2023-06-09T09:06:18.037Z,100221.78
2023-06-09T09:08:45.728Z,100223.56
2023-06-09T09:11:14.227Z,100228.78
2023-06-09T09:13:41.855Z,100223.97
2023-06-09T09:16:20.079Z,100228.63
2023-06-09T09:18:49.384Z,100218.94
2023-06-09T09:21:24.359Z,100231.06
2023-06-09T09:24:02.666Z,100231.47
2023-06-09T09:26:31.696Z,100211.53
2023-06-09T09:29:08.320Z,100217.94
2023-06-09T09:31:39.984Z,100213.78
2023-06-09T09:34:15.420Z,100215.06
2023-06-09T09:36:46.794Z,100211.22
2023-06-09T09:39:16.331Z,100208.38
2023-06-09T09:42:07.292Z,100217.72
2023-06-09T09:44:42.298Z,100225.38
2023-06-09T09:47:16.928Z,100223.56
2023-06-09T09:50:03.505Z,100221.28
2023-06-09T09:52:32.417Z,100218.94
2023-06-09T09:55:01.529Z,100221.78
2023-06-09T09:57:31.533Z,100221.19
2023-06-09T10:00:05.623Z,100225.22
2023-06-09T10:02:46.593Z,100227.94
2023-06-09T10:05:17.552Z,100223.88
2023-06-09T10:07:49.675Z,100225.19
2023-06-09T10:10:18.789Z,100222.69
2023-06-09T10:12:47.545Z,100234.22
2023-06-09T10:15:15.942Z,100231.38
2023-06-09T10:17:45.062Z,100235.06
2023-06-09T10:20:14.241Z,100229.38
2023-06-09T10:22:42.403Z,100226.91
2023-06-09T10:25:13.471Z,100217.09
2023-06-09T10:27:41.828Z,100219.34
2023-06-09T10:30:10.523Z,100220.81
2023-06-09T10:32:47.540Z,100217.66
2023-06-09T10:35:20.971Z,100217.38
2023-06-09T10:37:51.254Z,100229.44
2023-06-09T10:40:39.570Z,100228.75
2023-06-09T10:43:41.318Z,100224.25
2023-06-09T10:46:14.067Z,100211.47
2023-06-09T10:48:44.523Z,100211.56
2023-06-09T10:51:30.079Z,100206.88
2023-06-09T10:54:18.829Z,100204.25
2023-06-09T10:56:53.565Z,100211.88
2023-06-09T10:59:27.141Z,100212.88
2023-06-09T11:02:04.640Z,100225.63
2023-06-09T11:04:39.340Z,100226.69
2023-06-09T11:07:11.186Z,100221.53
2023-06-09T11:09:39.028Z,100226.72
2023-06-09T11:12:07.387Z,100220.41
2023-06-09T11:14:47.341Z,100227.38
2023-06-09T11:17:27.224Z,100228.28
2023-06-09T11:20:12.792Z,100244.47
2023-06-09T11:22:44.087Z,100255.75
2023-06-09T11:25:22.199Z,100249.25
2023-06-09T11:28:10.892Z,100241.34
2023-06-09T11:31:05.878Z,100239.13
2023-06-09T11:33:47.069Z,100242.56
2023-06-09T11:36:23.381Z,100245.75
2023-06-09T11:38:51.693Z,100239.91
2023-06-09T11:41:26.030Z,100238.44
2023-06-09T11:43:55.703Z,100237.59
2023-06-09T11:46:23.616Z,100231.25
2023-06-09T11:48:58.911Z,100218.50
2023-06-09T11:51:26.859Z,100234.91
2023-06-09T11:53:54.366Z,100222.75
2023-06-09T11:56:23.199Z,100221.38
2023-06-09T11:58:55.193Z,100211.53
2023-06-09T12:01:31.903Z,100218.13
2023-06-09T12:03:59.561Z,100204.06
2023-06-09T12:06:28.562Z,100202.63
2023-06-09T12:09:24.557Z,100201.34
2023-06-09T12:11:53.914Z,100204.09
2023-06-09T12:14:22.650Z,100207.28
2023-06-09T12:16:51.495Z,100196.78
2023-06-09T12:19:20.025Z,100197.88
2023-06-09T12:21:49.147Z,100192.97
2023-06-09T12:24:17.073Z,100204.78
2023-06-09T12:26:46.223Z,100208.13
2023-06-09T12:29:14.297Z,100217.47
2023-06-09T12:31:48.119Z,100226.75
2023-06-09T12:34:30.568Z,100230.78
2023-06-09T12:36:59.256Z,100225.59
2023-06-09T12:39:31.833Z,100225.34
2023-06-09T12:42:09.676Z,100239.88
2023-06-09T12:44:37.205Z,100244.69
2023-06-09T12:47:14.169Z,100246.38
2023-06-09T12:49:44.420Z,100244.16
2023-06-09T12:52:11.898Z,100257.97
2023-06-09T12:54:39.505Z,100253.34
2023-06-09T12:57:07.489Z,100263.25
2023-06-09T12:59:35.344Z,100261.97
2023-06-09T13:02:03.501Z,100264.25
2023-06-09T13:04:31.236Z,100248.97
2023-06-09T13:06:58.756Z,100254.94
2023-06-09T13:09:26.267Z,100266.13
2023-06-09T13:11:53.845Z,100260.94
2023-06-09T13:14:21.421Z,100262.50
2023-06-09T13:16:49.223Z,100263.44
2023-06-09T13:19:16.857Z,100267.81
2023-06-09T13:21:45.395Z,100270.06
2023-06-09T13:24:13.791Z,100270.41
2023-06-09T13:26:41.577Z,100270.03
2023-06-09T13:29:10.529Z,100272.03
2023-06-09T13:31:38.522Z,100268.69
2023-06-09T13:34:06.102Z,100281.03
2023-06-09T13:36:33.689Z,100281.66
2023-06-09T13:39:01.745Z,100270.72
2023-06-09T13:41:32.063Z,100274.88
2023-06-09T13:44:04.070Z,100278.59
2023-06-09T13:46:31.652Z,100281.00
2023-06-09T13:49:00.257Z,100293.06
2023-06-09T13:51:27.959Z,100292.91
2023-06-09T13:53:55.586Z,100301.75
2023-06-09T13:56:23.967Z,100313.84
2023-06-09T13:58:51.557Z,100316.03
2023-06-09T14:01:19.598Z,100322.25
2023-06-09T14:03:47.227Z,100328.69
2023-06-09T14:06:14.932Z,100334.31
2023-06-09T14:08:42.512Z,100339.66
2023-06-09T14:11:10.294Z,100355.69
2023-06-09T14:13:38.263Z,100351.47
2023-06-09T14:16:06.299Z,100372.75
2023-06-09T14:18:33.939Z,100383.69
2023-06-09T14:21:01.601Z,100387.56
2023-06-09T14:23:29.341Z,100383.56
2023-06-09T14:25:56.962Z,100402.47
2023-06-09T14:28:24.708Z,100392.66
2023-06-09T14:30:52.229Z,100396.47
2023-06-09T14:33:20.630Z,100360.75
2023-06-09T14:35:48.422Z,100363.06
2023-06-09T14:38:16.030Z,100350.34
2023-06-09T14:40:43.799Z,100340.22
2023-06-09T14:43:12.046Z,100337.91
2023-06-09T14:45:40.017Z,100334.75
2023-06-09T14:48:10.589Z,100316.91
2023-06-09T14:50:42.158Z,100323.31
2023-06-09T14:53:14.064Z,100314.09
2023-06-09T14:55:45.046Z,100306.59
2023-06-09T14:58:14.142Z,100295.19
2023-06-09T15:00:43.014Z,100287.69
2023-06-09T15:03:12.920Z,100265.47
2023-06-09T15:05:40.816Z,100243.44
2023-06-09T15:08:08.578Z,100250.41
2023-06-09T15:10:44.206Z,100268.25
2023-06-09T15:13:13.013Z,100280.00
2023-06-09T15:15:40.898Z,100274.75
2023-06-09T15:18:10.804Z,100280.53
2023-06-09T15:20:42.406Z,100273.03
2023-06-09T15:23:11.467Z,100262.53
2023-06-09T15:25:41.756Z,100253.03
2023-06-09T15:28:11.755Z,100250.38
2023-06-09T15:30:48.139Z,100264.56
2023-06-09T15:33:20.289Z,100259.31
2023-06-09T15:35:53.141Z,100255.59
2023-06-09T15:38:25.855Z,100253.88
2023-06-09T15:40:55.251Z,100252.34
2023-06-09T15:43:23.848Z,100249.41
2023-06-09T15:45:53.703Z,100253.28
2023-06-09T15:48:22.660Z,100253.06
2023-06-09T15:50:51.395Z,100252.78
2023-06-09T15:53:21.589Z,100253.59
2023-06-09T15:55:51.101Z,100248.16
2023-06-09T15:58:19.376Z,100247.88
2023-06-09T16:00:47.545Z,100250.19
2023-06-09T16:03:15.475Z,100239.19
2023-06-09T16:05:43.714Z,100240.00
2023-06-09T16:08:13.763Z,100240.94
2023-06-09T16:10:43.157Z,100246.91
2023-06-09T16:13:10.828Z,100245.78
2023-06-09T16:15:40.720Z,100250.94
2023-06-09T16:18:13.428Z,100256.06
2023-06-09T16:20:44.044Z,100262.72
2023-06-09T16:23:12.520Z,100268.25
2023-06-09T16:25:40.144Z,100265.38
2023-06-09T16:28:08.076Z,100270.84
2023-06-09T16:30:39.521Z,100271.56
2023-06-09T16:33:09.294Z,100287.34
2023-06-09T16:35:37.320Z,100288.28
2023-06-09T16:38:05.712Z,100289.63
2023-06-09T16:40:33.632Z,100277.16
2023-06-09T16:43:01.259Z,100288.50
2023-06-09T16:45:29.766Z,100280.38
2023-06-09T16:47:58.153Z,100286.50
2023-06-09T16:50:28.710Z,100278.09
2023-06-09T16:52:56.731Z,100279.47
2023-06-09T16:55:24.285Z,100283.84
2023-06-09T16:57:51.863Z,100287.28
2023-06-09T17:00:19.385Z,100284.50
2023-06-09T17:02:47.079Z,100284.28
2023-06-09T17:05:14.841Z,100286.72
2023-06-09T17:07:43.365Z,100275.59
2023-06-09T17:10:11.608Z,100287.00
2023-06-09T17:12:39.575Z,100283.09
2023-06-09T17:15:08.080Z,100298.69
2023-06-09T17:17:35.965Z,100301.34
2023-06-09T17:20:04.443Z,100306.13
2023-06-09T17:22:32.674Z,100307.53
2023-06-09T17:25:00.153Z,100304.44
2023-06-09T17:27:27.679Z,100314.00
2023-06-09T17:29:55.075Z,100308.59
2023-06-09T17:32:22.502Z,100308.53
2023-06-09T17:34:49.962Z,100304.66
2023-06-09T17:37:17.563Z,100313.25
2023-06-09T17:39:45.130Z,100302.81
2023-06-09T17:42:12.958Z,100290.72
2023-06-09T17:44:40.467Z,100300.84
2023-06-09T17:47:08.350Z,100305.91
2023-06-09T17:49:36.456Z,100307.97
2023-06-09T17:52:04.434Z,100298.13
2023-06-09T17:54:37.038Z,100298.16
2023-06-09T17:57:07.498Z,100290.72
2023-06-09T17:59:35.286Z,100308.75
2023-06-09T18:02:03.978Z,100309.75
2023-06-09T18:04:31.556Z,100319.31
2023-06-09T18:07:00.129Z,100313.22
2023-06-09T18:09:27.644Z,100323.75
2023-06-09T18:11:55.308Z,100325.88
2023-06-09T18:14:23.007Z,100324.22
2023-06-09T18:16:50.690Z,100322.28
2023-06-09T18:19:18.344Z,100322.34
2023-06-09T18:21:45.968Z,100336.06
2023-06-09T18:24:13.513Z,100337.44
2023-06-09T18:26:41.516Z,100344.47
2023-06-09T18:29:09.707Z,100342.16
2023-06-09T18:31:37.404Z,100355.03
2023-06-09T18:34:05.390Z,100360.16
2023-06-09T18:36:33.117Z,100362.34
2023-06-09T18:39:00.721Z,100359.16
2023-06-09T18:41:28.344Z,100369.03
2023-06-09T18:43:57.572Z,100375.88
2023-06-09T18:46:25.371Z,100377.72
2023-06-09T18:49:01.089Z,100386.69
2023-06-09T18:51:29.685Z,100387.75
2023-06-09T18:53:57.199Z,100396.13
2023-06-09T18:56:25.021Z,100399.28
2023-06-09T18:58:52.615Z,100390.22
2023-06-09T19:01:21.695Z,100395.56
2023-06-09T19:03:49.743Z,100396.72
2023-06-09T19:06:18.606Z,100396.56
2023-06-09T19:08:47.027Z,100392.72
2023-06-09T19:11:14.868Z,100391.09
2023-06-09T19:13:43.105Z,100392.59
2023-06-09T19:16:11.063Z,100390.81
2023-06-09T19:18:38.756Z,100390.22
2023-06-09T19:21:06.370Z,100385.59
2023-06-09T19:23:33.904Z,100385.25
2023-06-09T19:26:02.468Z,100382.41
2023-06-09T19:28:30.113Z,100382.22
2023-06-09T19:30:57.682Z,100383.88
2023-06-09T19:33:25.188Z,100383.53
2023-06-09T19:35:53.005Z,100384.13
2023-06-09T19:38:20.525Z,100387.13
2023-06-09T19:40:48.151Z,100378.13
2023-06-09T19:43:15.907Z,100381.63
2023-06-09T19:45:44.280Z,100382.06
2023-06-09T19:48:11.886Z,100377.00
2023-06-09T19:50:39.660Z,100372.97
2023-06-09T19:53:07.212Z,100375.13
2023-06-09T19:55:34.729Z,100375.19
2023-06-09T19:58:04.216Z,100371.91
2023-06-09T20:00:31.947Z,100378.41
2023-06-09T20:02:59.390Z,100377.06
2023-06-09T20:05:26.918Z,100381.97
2023-06-09T20:07:54.490Z,100377.53
2023-06-09T20:10:22.225Z,100383.53
2023-06-09T20:12:49.750Z,100374.03
2023-06-09T20:15:17.267Z,100379.94
2023-06-09T20:17:44.846Z,100387.84
2023-06-09T20:20:13.489Z,100389.56
2023-06-09T20:22:42.029Z,100397.59
2023-06-09T20:25:10.121Z,100405.50
2023-06-09T20:27:38.099Z,100416.09
2023-06-09T20:30:06.537Z,100426.72
2023-06-09T20:32:34.042Z,100423.94
2023-06-09T20:35:01.607Z,100433.97
2023-06-09T20:37:29.062Z,100438.53
2023-06-09T20:39:57.583Z,100439.53
2023-06-09T20:42:25.120Z,100446.31
2023-06-09T20:44:52.963Z,100443.72
2023-06-09T20:47:20.750Z,100441.72
2023-06-09T20:49:48.338Z,100435.75
2023-06-09T20:52:16.230Z,100437.72
2023-06-09T20:54:44.584Z,100443.97
2023-06-09T20:57:12.064Z,100441.25
2023-06-09T20:59:39.770Z,100439.78
2023-06-09T21:02:08.550Z,100444.22
2023-06-09T21:04:36.050Z,100457.25
2023-06-09T21:07:04.297Z,100448.53
2023-06-09T21:09:31.876Z,100450.25
2023-06-09T21:11:59.363Z,100450.19
2023-06-09T21:14:27.548Z,100452.72
2023-06-09T21:16:55.120Z,100450.19
2023-06-09T21:19:22.745Z,100457.38
2023-06-09T21:21:50.213Z,100460.06
2023-06-09T21:24:17.919Z,100449.66
2023-06-09T21:26:46.055Z,100455.81
2023-06-09T21:29:13.639Z,100459.53
2023-06-09T21:31:41.232Z,100461.41
2023-06-09T21:34:08.850Z,100469.31
2023-06-09T21:36:36.507Z,100469.41
2023-06-09T21:39:04.147Z,100474.72
2023-06-09T21:41:31.678Z,100471.22
2023-06-09T21:43:59.230Z,100469.47
2023-06-09T21:46:26.671Z,100479.22
2023-06-09T21:48:54.202Z,100483.50
2023-06-09T21:51:21.884Z,100474.78
2023-06-09T21:53:49.482Z,100471.81
2023-06-09T21:56:16.964Z,100464.84
2023-06-09T21:58:44.538Z,100476.34
2023-06-09T22:01:12.315Z,100467.81
2023-06-09T22:03:39.968Z,100467.06
2023-06-09T22:06:07.671Z,100472.38
2023-06-09T22:08:37.413Z,100480.34
2023-06-09T22:11:06.597Z,100484.72
2023-06-09T22:13:35.565Z,100491.00
2023-06-09T22:16:03.793Z,100485.59
2023-06-09T22:18:31.861Z,100488.91
2023-06-09T22:21:08.960Z,100492.78
2023-06-09T22:23:36.596Z,100489.41
2023-06-09T22:26:04.051Z,100492.00
2023-06-09T22:28:31.676Z,100494.59
2023-06-09T22:30:59.273Z,100499.84
2023-06-09T22:33:26.779Z,100510.16
2023-06-09T22:35:54.348Z,100511.63
2023-06-09T22:38:21.840Z,100519.53
2023-06-09T22:40:49.885Z,100513.41
2023-06-09T22:43:17.386Z,100520.53
2023-06-09T22:45:44.911Z,100523.41
2023-06-09T22:48:13.086Z,100518.97
2023-06-09T22:50:40.811Z,100518.97
2023-06-09T22:53:08.348Z,100516.50
2023-06-09T22:55:35.874Z,100516.97
2023-06-09T22:58:03.537Z,100524.28
2023-06-09T23:00:31.220Z,100522.84
2023-06-09T23:02:58.855Z,100523.88
2023-06-09T23:05:31.443Z,100521.28
2023-06-09T23:07:59.170Z,100522.16
2023-06-09T23:10:26.628Z,100522.25
2023-06-09T23:12:54.159Z,100525.69
2023-06-09T23:15:23.992Z,100528.38
2023-06-09T23:17:53.723Z,100532.78
2023-06-09T23:20:23.193Z,100524.00
2023-06-09T23:22:53.839Z,100526.69
2023-06-09T23:25:21.315Z,100525.63
2023-06-09T23:27:48.920Z,100523.84
2023-06-09T23:30:16.522Z,100534.97
2023-06-09T23:32:45.367Z,100536.06
2023-06-09T23:35:14.556Z,100540.69
2023-06-09T23:37:42.366Z,100538.13
2023-06-09T23:40:11.429Z,100544.25
2023-06-09T23:42:41.065Z,100544.06
2023-06-09T23:45:09.697Z,100537.72
2023-06-09T23:47:37.688Z,100543.28
2023-06-09T23:50:06.126Z,100542.47
2023-06-09T23:52:34.207Z,100547.78
2023-06-09T23:55:05.292Z,100547.78
2023-06-09T23:57:34.025Z,100539.88
